sensor_id;sensor_type;location;lat;lon;timestamp;pressure;altitude;pressure_sealevel;temperature;humidity
56198;BME280;42700;42.524;12.052;2022-10-16T00:01:45;98555.41;;;16.05;100.00
56198;BME280;42700;42.524;12.052;2022-10-16T00:04:11;98592.72;;;16.07;100.00
56198;BME280;42700;42.524;12.052;2022-10-16T00:06:36;98567.97;;;16.04;100.00
56198;BME280;42700;42.524;12.052;2022-10-16T00:09:02;98514.16;;;15.99;100.00
56198;BME280;42700;42.524;12.052;2022-10-16T00:11:29;98487.75;;;15.96;100.00
56198;BME280;42700;42.524;12.052;2022-10-16T00:13:57;98444.63;;;15.91;100.00
56198;BME280;42700;42.524;12.052;2022-10-16T00:16:22;98387.34;;;15.85;100.00
56198;BME280;42700;42.524;12.052;2022-10-16T00:18:48;98353.09;;;15.81;100.00
56198;BME280;42700;42.524;12.052;2022-10-16T00:21:15;98293.25;;;15.74;100.00
56198;BME280;42700;42.524;12.052;2022-10-16T00:23:41;98233.50;;;15.66;100.00
56198;BME280;42700;42.524;12.052;2022-10-16T00:26:07;98143.66;;;15.57;100.00
56198;BME280;42700;42.524;12.052;2022-10-16T00:28:33;98085.59;;;15.51;100.00
56198;BME280;42700;42.524;12.052;2022-10-16T00:30:59;98079.56;;;15.49;100.00
56198;BME280;42700;42.524;12.052;2022-10-16T00:33:27;98102.03;;;15.48;100.00
56198;BME280;42700;42.524;12.052;2022-10-16T00:35:52;98097.88;;;15.45;100.00
56198;BME280;42700;42.524;12.052;2022-10-16T00:38:18;98086.75;;;15.42;100.00
56198;BME280;42700;42.524;12.052;2022-10-16T00:40:43;98077.09;;;15.41;100.00
56198;BME280;42700;42.524;12.052;2022-10-16T00:45:53;98169.13;;;15.46;100.00
56198;BME280;42700;42.524;12.052;2022-10-16T00:48:18;98201.25;;;15.46;100.00
56198;BME280;42700;42.524;12.052;2022-10-16T00:50:44;98192.59;;;15.44;100.00
56198;BME280;42700;42.524;12.052;2022-10-16T00:53:09;98170.75;;;15.41;100.00
56198;BME280;42700;42.524;12.052;2022-10-16T00:55:36;98167.84;;;15.42;100.00
56198;BME280;42700;42.524;12.052;2022-10-16T00:58:01;98210.28;;;15.45;100.00
56198;BME280;42700;42.524;12.052;2022-10-16T01:00:27;98242.84;;;15.49;100.00
56198;BME280;42700;42.524;12.052;2022-10-16T01:02:56;98211.94;;;15.46;100.00
56198;BME280;42700;42.524;12.052;2022-10-16T01:05:23;98154.69;;;15.41;100.00
56198;BME280;42700;42.524;12.052;2022-10-16T01:10:39;98027.22;;;15.26;100.00
56198;BME280;42700;42.524;12.052;2022-10-16T01:13:12;98008.88;;;15.23;100.00
56198;BME280;42700;42.524;12.052;2022-10-16T01:15:59;98006.19;;;15.23;100.00
56198;BME280;42700;42.524;12.052;2022-10-16T01:22:02;97975.94;;;15.16;100.00
56198;BME280;42700;42.524;12.052;2022-10-16T01:26:36;98053.72;;;15.21;100.00
56198;BME280;42700;42.524;12.052;2022-10-16T01:31:50;98118.78;;;15.28;100.00
56198;BME280;42700;42.524;12.052;2022-10-16T01:34:21;98147.84;;;15.31;100.00
56198;BME280;42700;42.524;12.052;2022-10-16T01:36:51;98185.53;;;15.37;100.00
56198;BME280;42700;42.524;12.052;2022-10-16T01:39:19;98292.69;;;15.50;100.00
56198;BME280;42700;42.524;12.052;2022-10-16T01:41:47;98342.38;;;15.59;100.00
56198;BME280;42700;42.524;12.052;2022-10-16T01:44:16;98328.16;;;15.59;100.00
56198;BME280;42700;42.524;12.052;2022-10-16T01:46:43;98374.38;;;15.67;100.00
56198;BME280;42700;42.524;12.052;2022-10-16T01:49:11;98419.78;;;15.76;100.00
56198;BME280;42700;42.524;12.052;2022-10-16T01:51:38;98414.44;;;15.76;100.00
56198;BME280;42700;42.524;12.052;2022-10-16T01:54:04;98480.84;;;15.87;100.00
56198;BME280;42700;42.524;12.052;2022-10-16T01:56:30;98521.94;;;15.94;100.00
56198;BME280;42700;42.524;12.052;2022-10-16T02:01:55;98567.59;;;16.08;100.00
56198;BME280;42700;42.524;12.052;2022-10-16T02:04:24;98518.09;;;16.03;100.00
56198;BME280;42700;42.524;12.052;2022-10-16T02:06:53;98484.69;;;15.99;100.00
56198;BME280;42700;42.524;12.052;2022-10-16T02:09:19;98449.63;;;15.94;100.00
56198;BME280;42700;42.524;12.052;2022-10-16T02:11:44;98453.31;;;15.93;100.00
56198;BME280;42700;42.524;12.052;2022-10-16T02:14:10;98425.88;;;15.91;100.00
56198;BME280;42700;42.524;12.052;2022-10-16T02:16:45;98412.88;;;15.88;100.00
56198;BME280;42700;42.524;12.052;2022-10-16T02:19:12;98444.63;;;15.91;100.00
56198;BME280;42700;42.524;12.052;2022-10-16T02:29:16;98449.63;;;15.94;100.00
56198;BME280;42700;42.524;12.052;2022-10-16T02:31:45;98396.81;;;15.88;100.00
56198;BME280;42700;42.524;12.052;2022-10-16T02:34:12;98385.28;;;15.88;100.00
56198;BME280;42700;42.524;12.052;2022-10-16T02:36:39;98360.75;;;15.84;100.00
56198;BME280;42700;42.524;12.052;2022-10-16T02:39:05;98365.06;;;15.85;100.00
56198;BME280;42700;42.524;12.052;2022-10-16T02:41:31;98386.47;;;15.85;100.00
56198;BME280;42700;42.524;12.052;2022-10-16T02:43:57;98406.91;;;15.86;100.00
56198;BME280;42700;42.524;12.052;2022-10-16T02:46:23;98407.91;;;15.85;100.00
56198;BME280;42700;42.524;12.052;2022-10-16T02:48:48;98419.25;;;15.87;100.00
56198;BME280;42700;42.524;12.052;2022-10-16T02:51:14;98402.56;;;15.85;100.00
56198;BME280;42700;42.524;12.052;2022-10-16T02:53:39;98385.84;;;15.83;100.00
56198;BME280;42700;42.524;12.052;2022-10-16T02:56:05;98352.47;;;15.79;100.00
56198;BME280;42700;42.524;12.052;2022-10-16T02:58:30;98330.38;;;15.77;100.00
56198;BME280;42700;42.524;12.052;2022-10-16T03:00:56;98309.31;;;15.74;100.00
56198;BME280;42700;42.524;12.052;2022-10-16T03:03:21;98276.75;;;15.70;100.00
56198;BME280;42700;42.524;12.052;2022-10-16T03:05:47;98267.28;;;15.67;100.00
56198;BME280;42700;42.524;12.052;2022-10-16T03:08:13;98270.97;;;15.66;100.00
56198;BME280;42700;42.524;12.052;2022-10-16T03:10:39;98252.44;;;15.65;100.00
56198;BME280;42700;42.524;12.052;2022-10-16T03:13:04;98232.25;;;15.62;100.00
56198;BME280;42700;42.524;12.052;2022-10-16T03:15:30;98329.50;;;15.69;100.00
56198;BME280;42700;42.524;12.052;2022-10-16T03:17:58;98303.09;;;15.66;100.00
56198;BME280;42700;42.524;12.052;2022-10-16T03:20:24;98285.38;;;15.65;100.00
56198;BME280;42700;42.524;12.052;2022-10-16T03:22:50;98275.69;;;15.64;100.00
56198;BME280;42700;42.524;12.052;2022-10-16T03:25:15;98283.72;;;15.64;100.00
56198;BME280;42700;42.524;12.052;2022-10-16T03:27:41;98238.00;;;15.59;100.00
56198;BME280;42700;42.524;12.052;2022-10-16T03:30:06;98182.56;;;15.53;100.00
56198;BME280;42700;42.524;12.052;2022-10-16T03:32:32;98082.22;;;15.42;100.00
56198;BME280;42700;42.524;12.052;2022-10-16T03:34:58;98049.50;;;15.40;100.00
56198;BME280;42700;42.524;12.052;2022-10-16T03:37:23;97977.63;;;15.30;100.00
56198;BME280;42700;42.524;12.052;2022-10-16T03:39:49;97941.59;;;15.26;100.00
56198;BME280;42700;42.524;12.052;2022-10-16T03:42:14;97925.94;;;15.23;100.00
56198;BME280;42700;42.524;12.052;2022-10-16T03:44:40;98165.63;;;15.46;100.00
56198;BME280;42700;42.524;12.052;2022-10-16T03:47:05;98214.06;;;15.51;100.00
56198;BME280;42700;42.524;12.052;2022-10-16T03:49:31;98322.59;;;15.60;100.00
56198;BME280;42700;42.524;12.052;2022-10-16T03:51:56;98262.47;;;15.56;100.00
56198;BME280;42700;42.524;12.052;2022-10-16T03:54:22;98103.22;;;15.39;100.00
56198;BME280;42700;42.524;12.052;2022-10-16T03:56:48;97997.78;;;15.26;100.00
56198;BME280;42700;42.524;12.052;2022-10-16T03:59:13;97904.34;;;15.18;100.00
56198;BME280;42700;42.524;12.052;2022-10-16T04:01:39;97842.78;;;15.11;100.00
56198;BME280;42700;42.524;12.052;2022-10-16T04:04:04;97776.31;;;15.02;100.00
56198;BME280;42700;42.524;12.052;2022-10-16T04:06:30;97704.31;;;14.93;100.00
56198;BME280;42700;42.524;12.052;2022-10-16T04:08:55;97689.50;;;14.91;100.00
56198;BME280;42700;42.524;12.052;2022-10-16T04:11:21;97660.94;;;14.85;100.00
56198;BME280;42700;42.524;12.052;2022-10-16T04:13:47;97606.41;;;14.79;100.00
56198;BME280;42700;42.524;12.052;2022-10-16T04:16:12;97530.38;;;14.68;100.00
56198;BME280;42700;42.524;12.052;2022-10-16T04:18:38;97515.56;;;14.66;100.00
56198;BME280;42700;42.524;12.052;2022-10-16T04:21:04;97364.72;;;14.48;100.00
56198;BME280;42700;42.524;12.052;2022-10-16T04:23:30;97465.38;;;14.54;100.00
56198;BME280;42700;42.524;12.052;2022-10-16T04:25:55;97544.75;;;14.61;100.00
56198;BME280;42700;42.524;12.052;2022-10-16T04:28:21;97614.44;;;14.66;100.00
56198;BME280;42700;42.524;12.052;2022-10-16T04:30:46;97648.78;;;14.69;100.00
56198;BME280;42700;42.524;12.052;2022-10-16T04:33:12;97691.13;;;14.72;100.00
56198;BME280;42700;42.524;12.052;2022-10-16T04:35:38;97745.81;;;14.76;100.00
56198;BME280;42700;42.524;12.052;2022-10-16T04:38:03;97779.56;;;14.77;100.00
56198;BME280;42700;42.524;12.052;2022-10-16T04:40:29;97768.06;;;14.76;100.00
56198;BME280;42700;42.524;12.052;2022-10-16T04:42:58;97838.59;;;14.82;100.00
56198;BME280;42700;42.524;12.052;2022-10-16T04:45:24;97919.00;;;14.87;100.00
56198;BME280;42700;42.524;12.052;2022-10-16T04:47:49;97943.69;;;14.89;100.00
56198;BME280;42700;42.524;12.052;2022-10-16T04:50:14;98033.44;;;14.99;100.00
56198;BME280;42700;42.524;12.052;2022-10-16T04:52:40;98066.78;;;15.03;100.00
56198;BME280;42700;42.524;12.052;2022-10-16T04:55:06;98096.84;;;15.05;100.00
56198;BME280;42700;42.524;12.052;2022-10-16T04:57:31;98040.44;;;15.00;100.00
56198;BME280;42700;42.524;12.052;2022-10-16T04:59:58;97956.66;;;14.92;100.00
56198;BME280;42700;42.524;12.052;2022-10-16T05:02:24;97894.31;;;14.85;100.00
56198;BME280;42700;42.524;12.052;2022-10-16T05:04:49;97844.94;;;14.81;100.00
56198;BME280;42700;42.524;12.052;2022-10-16T05:07:14;97894.31;;;14.85;100.00
56198;BME280;42700;42.524;12.052;2022-10-16T05:09:40;97910.38;;;14.85;100.00
56198;BME280;42700;42.524;12.052;2022-10-16T05:12:06;98016.97;;;14.95;100.00
56198;BME280;42700;42.524;12.052;2022-10-16T05:14:31;98175.47;;;15.10;100.00
56198;BME280;42700;42.524;12.052;2022-10-16T05:16:57;98256.25;;;15.27;100.00
56198;BME280;42700;42.524;12.052;2022-10-16T05:19:22;98301.59;;;15.36;100.00
56198;BME280;42700;42.524;12.052;2022-10-16T05:21:48;98418.72;;;15.55;100.00
56198;BME280;42700;42.524;12.052;2022-10-16T05:24:13;98481.47;;;15.67;100.00
56198;BME280;42700;42.524;12.052;2022-10-16T05:26:39;98498.41;;;15.75;100.00
56198;BME280;42700;42.524;12.052;2022-10-16T05:29:04;98437.59;;;15.68;100.00
56198;BME280;42700;42.524;12.052;2022-10-16T05:31:30;98355.78;;;15.59;100.00
56198;BME280;42700;42.524;12.052;2022-10-16T05:33:58;98320.53;;;15.56;100.00
56198;BME280;42700;42.524;12.052;2022-10-16T05:36:25;98338.22;;;15.57;100.00
56198;BME280;42700;42.524;12.052;2022-10-16T05:38:51;98322.38;;;15.55;100.00
56198;BME280;42700;42.524;12.052;2022-10-16T05:41:17;98371.84;;;15.59;100.00
56198;BME280;42700;42.524;12.052;2022-10-16T05:43:49;98401.91;;;15.61;100.00
56198;BME280;42700;42.524;12.052;2022-10-16T05:46:15;98373.47;;;15.60;100.00
56198;BME280;42700;42.524;12.052;2022-10-16T05:48:41;98387.88;;;15.59;100.00
56198;BME280;42700;42.524;12.052;2022-10-16T05:51:07;98372.66;;;15.60;100.00
56198;BME280;42700;42.524;12.052;2022-10-16T05:53:35;98368.13;;;15.60;100.00
56198;BME280;42700;42.524;12.052;2022-10-16T05:56:00;98458.81;;;15.70;100.00
56198;BME280;42700;42.524;12.052;2022-10-16T05:58:30;98438.25;;;15.71;100.00
56198;BME280;42700;42.524;12.052;2022-10-16T06:01:00;98517.44;;;15.80;100.00
56198;BME280;42700;42.524;12.052;2022-10-16T06:03:26;98639.41;;;15.97;100.00
56198;BME280;42700;42.524;12.052;2022-10-16T06:05:52;98784.22;;;16.26;100.00
56198;BME280;42700;42.524;12.052;2022-10-16T06:08:18;98847.78;;;16.47;100.00
56198;BME280;42700;42.524;12.052;2022-10-16T06:10:44;98759.63;;;16.37;100.00
56198;BME280;42700;42.524;12.052;2022-10-16T06:13:10;98769.94;;;16.40;100.00
56198;BME280;42700;42.524;12.052;2022-10-16T06:15:36;98784.66;;;16.44;100.00
56198;BME280;42700;42.524;12.052;2022-10-16T06:18:04;98834.84;;;16.50;100.00
56198;BME280;42700;42.524;12.052;2022-10-16T06:20:29;98858.41;;;16.55;100.00
56198;BME280;42700;42.524;12.052;2022-10-16T06:22:54;98915.47;;;16.64;100.00
56198;BME280;42700;42.524;12.052;2022-10-16T06:25:20;98982.03;;;16.75;100.00
56198;BME280;42700;42.524;12.052;2022-10-16T06:27:45;99044.47;;;16.84;100.00
56198;BME280;42700;42.524;12.052;2022-10-16T06:30:11;99104.91;;;16.94;100.00
56198;BME280;42700;42.524;12.052;2022-10-16T06:32:36;99179.41;;;17.07;100.00
56198;BME280;42700;42.524;12.052;2022-10-16T06:35:02;99212.56;;;17.14;100.00
56198;BME280;42700;42.524;12.052;2022-10-16T06:37:27;99267.19;;;17.22;100.00
56198;BME280;42700;42.524;12.052;2022-10-16T06:39:52;99331.03;;;17.34;100.00
56198;BME280;42700;42.524;12.052;2022-10-16T06:42:18;99400.22;;;17.47;100.00
56198;BME280;42700;42.524;12.052;2022-10-16T06:44:43;99471.97;;;17.62;100.00
56198;BME280;42700;42.524;12.052;2022-10-16T06:47:09;99501.47;;;17.70;100.00
56198;BME280;42700;42.524;12.052;2022-10-16T06:49:34;99610.53;;;17.87;100.00
56198;BME280;42700;42.524;12.052;2022-10-16T06:52:00;99691.72;;;18.06;100.00
56198;BME280;42700;42.524;12.052;2022-10-16T06:54:26;99764.59;;;18.19;100.00
56198;BME280;42700;42.524;12.052;2022-10-16T06:56:52;99831.09;;;18.34;100.00
56198;BME280;42700;42.524;12.052;2022-10-16T06:59:20;99910.03;;;18.49;100.00
56198;BME280;42700;42.524;12.052;2022-10-16T07:01:45;99942.94;;;18.59;100.00
56198;BME280;42700;42.524;12.052;2022-10-16T07:04:11;100041.06;;;18.80;100.00
56198;BME280;42700;42.524;12.052;2022-10-16T07:06:36;100100.66;;;18.93;100.00
56198;BME280;42700;42.524;12.052;2022-10-16T07:09:03;100125.19;;;18.98;100.00
56198;BME280;42700;42.524;12.052;2022-10-16T07:11:29;100257.94;;;19.24;100.00
56198;BME280;42700;42.524;12.052;2022-10-16T07:13:54;100305.91;;;19.36;100.00
56198;BME280;42700;42.524;12.052;2022-10-16T07:16:21;100275.94;;;19.40;100.00
56198;BME280;42700;42.524;12.052;2022-10-16T07:18:46;100308.59;;;19.45;100.00
56198;BME280;42700;42.524;12.052;2022-10-16T07:21:17;100202.50;;;19.38;100.00
56198;BME280;42700;42.524;12.052;2022-10-16T07:23:44;100470.78;;;19.65;100.00
56198;BME280;42700;42.524;12.052;2022-10-16T07:26:10;100614.88;;;19.87;100.00
56198;BME280;42700;42.524;12.052;2022-10-16T07:28:36;100620.94;;;19.97;100.00
56198;BME280;42700;42.524;12.052;2022-10-16T07:31:10;100668.03;;;20.11;100.00
56198;BME280;42700;42.524;12.052;2022-10-16T07:33:39;100929.84;;;20.44;100.00
56198;BME280;42700;42.524;12.052;2022-10-16T07:36:05;101073.53;;;20.64;100.00
56198;BME280;42700;42.524;12.052;2022-10-16T07:38:30;101196.84;;;20.81;100.00
56198;BME280;42700;42.524;12.052;2022-10-16T07:40:57;101334.09;;;21.04;100.00
56198;BME280;42700;42.524;12.052;2022-10-16T07:43:23;101523.03;;;21.33;100.00
56198;BME280;42700;42.524;12.052;2022-10-16T07:45:48;101530.72;;;21.46;100.00
56198;BME280;42700;42.524;12.052;2022-10-16T07:48:14;101583.63;;;21.59;100.00
56198;BME280;42700;42.524;12.052;2022-10-16T07:50:40;101610.59;;;21.68;100.00
56198;BME280;42700;42.524;12.052;2022-10-16T07:53:06;101671.03;;;21.77;100.00
56198;BME280;42700;42.524;12.052;2022-10-16T07:55:32;101666.31;;;21.79;100.00
56198;BME280;42700;42.524;12.052;2022-10-16T07:57:57;101719.81;;;21.85;100.00
56198;BME280;42700;42.524;12.052;2022-10-16T08:00:23;101927.03;;;22.06;100.00
56198;BME280;42700;42.524;12.052;2022-10-16T08:02:48;102048.38;;;22.20;100.00
56198;BME280;42700;42.524;12.052;2022-10-16T08:05:14;102106.81;;;22.33;100.00
56198;BME280;42700;42.524;12.052;2022-10-16T08:07:39;102066.91;;;22.35;100.00
56198;BME280;42700;42.524;12.052;2022-10-16T08:10:05;102191.72;;;22.51;100.00
56198;BME280;42700;42.524;12.052;2022-10-16T08:12:30;102184.56;;;22.60;100.00
56198;BME280;42700;42.524;12.052;2022-10-16T08:14:56;102561.09;;;23.00;100.00
56198;BME280;42700;42.524;12.052;2022-10-16T08:17:21;102415.25;;;22.94;100.00
56198;BME280;42700;42.524;12.052;2022-10-16T08:19:47;102318.25;;;22.88;100.00
56198;BME280;42700;42.524;12.052;2022-10-16T08:22:13;102617.06;;;23.21;100.00
56198;BME280;42700;42.524;12.052;2022-10-16T08:24:39;102741.44;;;23.35;100.00
56198;BME280;42700;42.524;12.052;2022-10-16T08:27:05;102742.72;;;23.41;100.00
56198;BME280;42700;42.524;12.052;2022-10-16T08:29:30;102536.56;;;23.31;100.00
56198;BME280;42700;42.524;12.052;2022-10-16T08:31:56;102785.91;;;23.54;100.00
56198;BME280;42700;42.524;12.052;2022-10-16T08:34:21;102751.34;;;23.56;100.00
56198;BME280;42700;42.524;12.052;2022-10-16T08:36:47;102834.63;;;23.65;100.00
56198;BME280;42700;42.524;12.052;2022-10-16T08:39:12;102630.81;;;23.49;100.00
56198;BME280;42700;42.524;12.052;2022-10-16T08:44:16;103147.84;;;23.95;100.00
56198;BME280;42700;42.524;12.052;2022-10-16T08:46:56;103320.06;;;24.13;100.00
56198;BME280;42700;42.524;12.052;2022-10-16T08:49:26;103269.19;;;24.16;100.00
56198;BME280;42700;42.524;12.052;2022-10-16T08:51:52;103315.56;;;24.24;100.00
56198;BME280;42700;42.524;12.052;2022-10-16T08:54:22;103468.03;;;24.42;100.00
56198;BME280;42700;42.524;12.052;2022-10-16T08:56:50;103230.81;;;24.30;100.00
56198;BME280;42700;42.524;12.052;2022-10-16T08:59:16;103626.13;;;24.70;100.00
56198;BME280;42700;42.524;12.052;2022-10-16T09:01:44;103784.22;;;24.88;100.00
56198;BME280;42700;42.524;12.052;2022-10-16T09:12:53;104081.84;;;25.43;100.00
56198;BME280;42700;42.524;12.052;2022-10-16T09:15:21;103839.09;;;25.38;100.00
56198;BME280;42700;42.524;12.052;2022-10-16T09:25:30;104688.41;;;26.41;100.00
56198;BME280;42700;42.524;12.052;2022-10-16T09:27:56;104756.56;;;26.54;100.00
56198;BME280;42700;42.524;12.052;2022-10-16T09:30:22;105024.34;;;26.86;100.00
56198;BME280;42700;42.524;12.052;2022-10-16T09:32:51;105366.94;;;27.33;100.00
56198;BME280;42700;42.524;12.052;2022-10-16T09:35:19;105425.50;;;27.56;100.00
56198;BME280;42700;42.524;12.052;2022-10-16T09:37:47;105536.00;;;27.79;100.00
56198;BME280;42700;42.524;12.052;2022-10-16T09:40:23;105427.53;;;27.80;100.00
56198;BME280;42700;42.524;12.052;2022-10-16T09:42:52;105763.25;;;28.16;100.00
56198;BME280;42700;42.524;12.052;2022-10-16T09:45:22;105681.00;;;28.20;100.00
56198;BME280;42700;42.524;12.052;2022-10-16T09:47:48;105874.31;;;28.48;100.00
56198;BME280;42700;42.524;12.052;2022-10-16T09:50:24;106039.72;;;28.73;100.00
56198;BME280;42700;42.524;12.052;2022-10-16T09:53:02;106017.56;;;28.92;100.00
56198;BME280;42700;42.524;12.052;2022-10-16T09:55:29;106093.25;;;29.07;100.00
56198;BME280;42700;42.524;12.052;2022-10-16T09:57:54;105831.63;;;29.01;100.00
56198;BME280;42700;42.524;12.052;2022-10-16T10:00:21;105975.47;;;29.21;100.00
56198;BME280;42700;42.524;12.052;2022-10-16T10:02:47;106087.75;;;29.36;100.00
56198;BME280;42700;42.524;12.052;2022-10-16T10:05:20;105985.41;;;29.37;100.00
56198;BME280;42700;42.524;12.052;2022-10-16T10:07:52;106211.28;;;29.61;100.00
56198;BME280;42700;42.524;12.052;2022-10-16T10:10:22;106403.75;;;29.83;100.00
56198;BME280;42700;42.524;12.052;2022-10-16T10:12:48;106702.72;;;30.13;100.00
56198;BME280;42700;42.524;12.052;2022-10-16T10:15:14;107077.50;;;30.52;100.00
56198;BME280;42700;42.524;12.052;2022-10-16T10:17:53;107055.00;;;30.61;100.00
56198;BME280;42700;42.524;12.052;2022-10-16T10:20:30;107020.84;;;30.67;100.00
56198;BME280;42700;42.524;12.052;2022-10-16T10:22:57;107072.38;;;30.78;100.00
56198;BME280;42700;42.524;12.052;2022-10-16T10:30:42;106882.97;;;30.76;100.00
56198;BME280;42700;42.524;12.052;2022-10-16T10:35:45;107320.16;;;31.19;100.00
56198;BME280;42700;42.524;12.052;2022-10-16T10:46:00;107652.94;;;31.72;100.00
56198;BME280;42700;42.524;12.052;2022-10-16T10:48:44;107757.59;;;31.88;100.00
56198;BME280;42700;42.524;12.052;2022-10-16T10:53:51;107524.66;;;31.87;100.00
56198;BME280;42700;42.524;12.052;2022-10-16T10:56:25;107263.63;;;31.80;100.00
56198;BME280;42700;42.524;12.052;2022-10-16T11:01:48;107130.41;;;31.85;100.00
56198;BME280;42700;42.524;12.052;2022-10-16T11:04:25;106904.09;;;31.67;100.00
56198;BME280;42700;42.524;12.052;2022-10-16T11:07:09;105956.09;;;31.07;100.00
56198;BME280;42700;42.524;12.052;2022-10-16T11:09:41;104879.38;;;30.34;100.00
56198;BME280;42700;42.524;12.052;2022-10-16T11:12:11;104216.44;;;29.78;100.00
56198;BME280;42700;42.524;12.052;2022-10-16T11:14:46;103719.84;;;29.20;100.00
56198;BME280;42700;42.524;12.052;2022-10-16T11:20:23;101475.84;;;27.36;100.00
56198;BME280;42700;42.524;12.052;2022-10-16T11:22:51;101740.09;;;27.24;100.00
56198;BME280;42700;42.524;12.052;2022-10-16T11:25:21;100865.00;;;26.66;100.00
56198;BME280;42700;42.524;12.052;2022-10-16T11:28:00;101257.75;;;26.56;100.00
56198;BME280;42700;42.524;12.052;2022-10-16T11:30:29;100712.69;;;26.03;100.00
56198;BME280;42700;42.524;12.052;2022-10-16T11:35:25;101370.06;;;25.85;100.00
56198;BME280;42700;42.524;12.052;2022-10-16T11:37:55;100508.97;;;25.24;100.00
56198;BME280;42700;42.524;12.052;2022-10-16T11:40:24;101067.53;;;25.30;100.00
56198;BME280;42700;42.524;12.052;2022-10-16T11:42:55;101294.19;;;25.22;100.00
56198;BME280;42700;42.524;12.052;2022-10-16T11:45:44;100577.31;;;24.73;100.00
56198;BME280;42700;42.524;12.052;2022-10-16T11:51:18;101533.41;;;24.76;100.00
56198;BME280;42700;42.524;12.052;2022-10-16T11:53:47;101797.34;;;24.90;100.00
56198;BME280;42700;42.524;12.052;2022-10-16T11:56:17;101692.38;;;24.80;100.00
56198;BME280;42700;42.524;12.052;2022-10-16T12:03:50;101646.91;;;24.49;100.00
56198;BME280;42700;42.524;12.052;2022-10-16T12:08:49;102350.81;;;25.00;100.00
56198;BME280;42700;42.524;12.052;2022-10-16T12:16:32;101618.31;;;24.78;100.00
56198;BME280;42700;42.524;12.052;2022-10-16T12:19:15;102129.72;;;25.00;100.00
56198;BME280;42700;42.524;12.052;2022-10-16T12:21:44;102031.00;;;24.99;100.00
56198;BME280;42700;42.524;12.052;2022-10-16T12:24:52;102126.50;;;25.04;100.00
56198;BME280;42700;42.524;12.052;2022-10-16T12:26:59;101749.41;;;24.97;100.00
56198;BME280;42700;42.524;12.052;2022-10-16T12:31:53;101815.34;;;24.99;100.00
56198;BME280;42700;42.524;12.052;2022-10-16T12:34:21;102603.00;;;25.44;100.00
56198;BME280;42700;42.524;12.052;2022-10-16T12:36:48;102986.84;;;25.80;100.00
56198;BME280;42700;42.524;12.052;2022-10-16T12:39:20;102800.69;;;25.81;100.00
56198;BME280;42700;42.524;12.052;2022-10-16T12:41:46;102114.06;;;25.45;100.00
56198;BME280;42700;42.524;12.052;2022-10-16T12:44:24;102958.59;;;25.91;100.00
56198;BME280;42700;42.524;12.052;2022-10-16T12:46:52;103720.34;;;26.32;100.00
56198;BME280;42700;42.524;12.052;2022-10-16T12:49:23;104074.41;;;26.58;100.00
56198;BME280;42700;42.524;12.052;2022-10-16T12:51:54;104315.91;;;26.85;100.00
56198;BME280;42700;42.524;12.052;2022-10-16T12:54:22;104040.41;;;26.74;100.00
56198;BME280;42700;42.524;12.052;2022-10-16T12:59:33;103285.72;;;26.17;100.00
56198;BME280;42700;42.524;12.052;2022-10-16T13:10:34;102476.19;;;25.33;100.00
56198;BME280;42700;42.524;12.052;2022-10-16T13:27:57;108397.56;;;31.25;100.00
56198;BME280;42700;42.524;12.052;2022-10-16T13:30:38;108584.59;;;32.01;100.00
56198;BME280;42700;42.524;12.052;2022-10-16T13:35:46;107763.78;;;31.93;100.00
56198;BME280;42700;42.524;12.052;2022-10-16T13:38:13;107642.97;;;32.04;100.00
56198;BME280;42700;42.524;12.052;2022-10-16T13:40:56;108031.53;;;32.72;100.00
56198;BME280;42700;42.524;12.052;2022-10-16T13:43:34;106425.25;;;31.97;100.00
56198;BME280;42700;42.524;12.052;2022-10-16T13:46:03;107284.81;;;32.56;100.00
56198;BME280;42700;42.524;12.052;2022-10-16T13:48:30;107546.91;;;32.82;100.00
56198;BME280;42700;42.524;12.052;2022-10-16T13:53:41;108301.84;;;33.99;100.00
56198;BME280;42700;42.524;12.052;2022-10-16T13:56:12;108058.53;;;34.06;100.00
56198;BME280;42700;42.524;12.052;2022-10-16T13:58:38;105109.50;;;32.26;100.00
56198;BME280;42700;42.524;12.052;2022-10-16T14:01:04;105888.19;;;32.72;100.00
56198;BME280;42700;42.524;12.052;2022-10-16T14:03:31;107794.91;;;33.81;100.00
56198;BME280;42700;42.524;12.052;2022-10-16T14:05:59;105446.75;;;32.61;100.00
56198;BME280;42700;42.524;12.052;2022-10-16T14:08:25;105990.41;;;32.45;100.00
56198;BME280;42700;42.524;12.052;2022-10-16T14:10:57;103790.72;;;31.26;100.00
56198;BME280;42700;42.524;12.052;2022-10-16T14:13:30;103884.50;;;31.05;100.00
56198;BME280;42700;42.524;12.052;2022-10-16T14:15:57;101491.59;;;29.15;100.00
56198;BME280;42700;42.524;12.052;2022-10-16T14:18:26;102223.78;;;28.65;100.00
56198;BME280;42700;42.524;12.052;2022-10-16T14:20:53;101621.91;;;27.75;100.00
56198;BME280;42700;42.524;12.052;2022-10-16T14:23:35;101577.97;;;27.12;100.00
56198;BME280;42700;42.524;12.052;2022-10-16T14:28:34;103458.09;;;27.36;100.00
56198;BME280;42700;42.524;12.052;2022-10-16T14:31:01;104650.81;;;28.33;100.00
56198;BME280;42700;42.524;12.052;2022-10-16T14:33:33;104521.38;;;28.97;100.00
56198;BME280;42700;42.524;12.052;2022-10-16T14:36:03;106353.69;;;30.36;100.00
56198;BME280;42700;42.524;12.052;2022-10-16T14:38:30;106937.84;;;31.24;100.00
56198;BME280;42700;42.524;12.052;2022-10-16T14:40:57;106012.28;;;31.40;100.00